createdAt,value
2024-03-09T00:00:38.991Z,528.00
2024-03-09T00:01:39.055Z,526.00
2024-03-09T00:02:39.030Z,525.00
2024-03-09T00:03:39.049Z,525.00
2024-03-09T00:04:39.000Z,524.00
2024-03-09T00:05:38.973Z,523.00
2024-03-09T00:06:38.972Z,521.00
2024-03-09T00:07:38.991Z,518.00
2024-03-09T00:08:38.984Z,518.00
2024-03-09T00:09:38.993Z,520.00
2024-03-09T00:10:39.123Z,519.00
2024-03-09T00:11:39.031Z,520.00
2024-03-09T00:12:38.954Z,519.00
2024-03-09T00:13:40.546Z,518.00
2024-03-09T00:14:38.967Z,518.00
2024-03-09T00:15:38.981Z,519.00
2024-03-09T00:16:39.011Z,521.00
2024-03-09T00:17:38.966Z,524.00
2024-03-09T00:18:44.690Z,524.00
2024-03-09T00:19:40.032Z,524.00
2024-03-09T00:20:38.970Z,525.00
2024-03-09T00:21:38.979Z,524.00
2024-03-09T00:22:39.019Z,523.00
2024-03-09T00:23:39.001Z,522.00
2024-03-09T00:24:38.992Z,524.00
2024-03-09T00:25:39.676Z,526.00
2024-03-09T00:26:39.003Z,527.00
2024-03-09T00:27:39.008Z,528.00
2024-03-09T00:28:39.028Z,527.00
2024-03-09T00:29:38.978Z,527.00
2024-03-09T00:30:38.986Z,527.00
2024-03-09T00:31:39.046Z,526.00
2024-03-09T00:32:38.997Z,523.00
2024-03-09T00:33:38.998Z,522.00
2024-03-09T00:34:38.999Z,521.00
2024-03-09T00:35:38.967Z,522.00
2024-03-09T00:36:38.977Z,521.00
2024-03-09T00:37:39.014Z,522.00
2024-03-09T00:38:38.965Z,517.00
2024-03-09T00:39:38.995Z,516.00
2024-03-09T00:40:39.034Z,514.00
2024-03-09T00:41:38.954Z,514.00
2024-03-09T00:42:39.117Z,512.00
2024-03-09T00:43:39.268Z,514.00
2024-03-09T00:44:39.397Z,516.00
2024-03-09T00:45:39.587Z,518.00
2024-03-09T00:46:39.754Z,516.00
2024-03-09T00:47:39.951Z,516.00
2024-03-09T00:48:39.964Z,516.00
2024-03-09T00:49:40.150Z,515.00
2024-03-09T00:50:40.241Z,515.00
2024-03-09T00:51:40.404Z,517.00
2024-03-09T00:52:40.500Z,517.00
2024-03-09T00:53:40.614Z,516.00
2024-03-09T00:54:40.674Z,514.00
2024-03-09T00:55:40.769Z,516.00
2024-03-09T00:56:40.709Z,517.00
2024-03-09T00:57:40.753Z,518.00
2024-03-09T00:58:40.817Z,519.00
2024-03-09T00:59:40.823Z,518.00
2024-03-09T01:00:40.945Z,520.00
2024-03-09T01:01:41.094Z,522.00
2024-03-09T01:02:41.162Z,521.00
2024-03-09T01:03:41.258Z,522.00
2024-03-09T01:04:41.407Z,521.00
2024-03-09T01:05:41.545Z,520.00
2024-03-09T01:06:41.518Z,518.00
2024-03-09T01:07:41.574Z,517.00
2024-03-09T01:08:41.549Z,517.00
2024-03-09T01:09:41.596Z,517.00
2024-03-09T01:10:41.691Z,518.00
2024-03-09T01:11:41.724Z,519.00
2024-03-09T01:12:41.640Z,519.00
2024-03-09T01:13:41.685Z,520.00
2024-03-09T01:14:41.698Z,520.00
2024-03-09T01:15:41.742Z,521.00
2024-03-09T01:16:41.817Z,520.00
2024-03-09T01:17:41.778Z,519.00
2024-03-09T01:18:41.772Z,519.00
2024-03-09T01:19:41.815Z,519.00
2024-03-09T01:20:41.857Z,520.00
2024-03-09T01:21:41.855Z,522.00
2024-03-09T01:22:41.866Z,522.00
2024-03-09T01:23:41.903Z,521.00
2024-03-09T01:24:41.910Z,521.00
2024-03-09T01:25:41.926Z,519.00
2024-03-09T01:26:41.957Z,518.00
2024-03-09T01:27:42.039Z,518.00
2024-03-09T01:28:42.002Z,518.00
2024-03-09T01:29:42.032Z,516.00
2024-03-09T01:30:42.047Z,515.00
2024-03-09T01:31:42.108Z,514.00
2024-03-09T01:32:42.319Z,515.00
2024-03-09T01:33:42.135Z,516.00
2024-03-09T01:34:42.187Z,517.00
2024-03-09T01:35:42.162Z,518.00
2024-03-09T01:36:42.199Z,521.00
2024-03-09T01:37:42.326Z,520.00
2024-03-09T01:38:42.302Z,520.00
2024-03-09T01:39:42.276Z,518.00
2024-03-09T01:40:42.325Z,520.00
2024-03-09T01:41:42.359Z,519.00
2024-03-09T01:42:42.419Z,516.00
2024-03-09T01:43:42.455Z,515.00
2024-03-09T01:44:42.440Z,514.00
2024-03-09T01:45:42.459Z,515.00
2024-03-09T01:46:42.583Z,515.00
2024-03-09T01:47:42.548Z,512.00
2024-03-09T01:48:42.559Z,514.00
2024-03-09T01:49:42.724Z,515.00
2024-03-09T01:50:42.611Z,513.00
2024-03-09T01:51:42.700Z,512.00
2024-03-09T01:52:42.707Z,512.00
2024-03-09T01:53:42.735Z,514.00
2024-03-09T01:54:43.089Z,518.00
2024-03-09T01:55:42.775Z,516.00
2024-03-09T01:56:42.790Z,515.00
2024-03-09T01:57:42.880Z,514.00
2024-03-09T01:58:42.927Z,514.00
2024-03-09T01:59:42.862Z,514.00
2024-03-09T02:00:42.948Z,515.00
2024-03-09T02:01:42.999Z,515.00
2024-03-09T02:02:43.007Z,515.00
2024-03-09T02:03:43.023Z,515.00
2024-03-09T02:04:43.069Z,516.00
2024-03-09T02:05:43.066Z,517.00
2024-03-09T02:06:43.123Z,518.00
2024-03-09T02:07:43.112Z,517.00
2024-03-09T02:08:43.153Z,520.00
2024-03-09T02:09:43.153Z,523.00
2024-03-09T02:10:43.278Z,520.00
2024-03-09T02:11:43.389Z,519.00
2024-03-09T02:12:43.266Z,521.00
2024-03-09T02:13:43.283Z,521.00
2024-03-09T02:14:43.288Z,518.00
2024-03-09T02:15:43.310Z,520.00
2024-03-09T02:16:43.402Z,520.00
2024-03-09T02:17:43.387Z,518.00
2024-03-09T02:18:43.409Z,518.00
2024-03-09T02:19:43.587Z,517.00
2024-03-09T02:20:43.446Z,519.00
2024-03-09T02:21:43.485Z,521.00
2024-03-09T02:22:43.562Z,519.00
2024-03-09T02:23:43.574Z,517.00
2024-03-09T02:24:43.893Z,518.00
2024-03-09T02:25:43.995Z,516.00
2024-03-09T02:26:44.108Z,516.00
2024-03-09T02:27:44.539Z,512.00
2024-03-09T02:28:44.618Z,513.00
2024-03-09T02:29:44.715Z,512.00
2024-03-09T02:30:44.913Z,511.00
2024-03-09T02:31:45.133Z,511.00
2024-03-09T02:32:45.359Z,511.00
2024-03-09T02:33:45.478Z,509.00
2024-03-09T02:34:45.759Z,510.00
2024-03-09T02:35:45.941Z,511.00
2024-03-09T02:36:46.112Z,511.00
2024-03-09T02:37:46.390Z,512.00
2024-03-09T02:38:46.568Z,512.00
2024-03-09T02:39:46.772Z,515.00
2024-03-09T02:40:46.913Z,515.00
2024-03-09T02:41:47.052Z,514.00
2024-03-09T02:42:47.302Z,514.00
2024-03-09T02:43:47.396Z,515.00
2024-03-09T02:44:47.675Z,514.00
2024-03-09T02:45:47.808Z,515.00
2024-03-09T02:46:48.043Z,513.00
2024-03-09T02:47:48.247Z,511.00
2024-03-09T02:48:48.414Z,511.00
2024-03-09T02:49:48.587Z,512.00
2024-03-09T02:50:48.749Z,512.00
2024-03-09T02:51:49.128Z,514.00
2024-03-09T02:52:49.207Z,516.00
2024-03-09T02:53:49.325Z,517.00
2024-03-09T02:54:49.508Z,515.00
2024-03-09T02:55:49.737Z,514.00
2024-03-09T02:56:49.809Z,514.00
2024-03-09T02:57:49.980Z,514.00
2024-03-09T02:58:50.343Z,515.00
2024-03-09T02:59:50.436Z,515.00
2024-03-09T03:00:50.518Z,516.00
2024-03-09T03:01:50.750Z,517.00
2024-03-09T03:02:50.930Z,518.00
2024-03-09T03:03:51.181Z,516.00
2024-03-09T03:04:51.310Z,516.00
2024-03-09T03:05:51.502Z,516.00
2024-03-09T03:06:51.654Z,514.00
2024-03-09T03:07:51.897Z,512.00
2024-03-09T03:08:52.089Z,509.00
2024-03-09T03:09:52.163Z,511.00
2024-03-09T03:10:52.423Z,512.00
2024-03-09T03:11:52.527Z,511.00
2024-03-09T03:12:52.462Z,512.00
2024-03-09T03:13:52.507Z,511.00
2024-03-09T03:14:52.503Z,511.00
2024-03-09T03:15:52.579Z,511.00
2024-03-09T03:16:52.749Z,509.00
2024-03-09T03:17:52.711Z,509.00
2024-03-09T03:18:52.677Z,510.00
2024-03-09T03:19:52.768Z,508.00
2024-03-09T03:20:52.746Z,510.00
2024-03-09T03:21:52.774Z,511.00
2024-03-09T03:22:52.902Z,513.00
2024-03-09T03:23:52.850Z,513.00
2024-03-09T03:24:52.867Z,512.00
2024-03-09T03:25:53.031Z,513.00
2024-03-09T03:26:52.999Z,516.00
2024-03-09T03:27:53.001Z,513.00
2024-03-09T03:28:53.088Z,513.00
2024-03-09T03:29:53.103Z,514.00
2024-03-09T03:30:53.136Z,518.00
2024-03-09T03:31:53.249Z,517.00
2024-03-09T03:32:53.923Z,517.00
2024-03-09T03:33:54.436Z,517.00
2024-03-09T03:34:53.451Z,516.00
2024-03-09T03:35:53.472Z,516.00
2024-03-09T03:36:53.467Z,516.00
2024-03-09T03:37:53.628Z,516.00
2024-03-09T03:38:53.504Z,516.00
2024-03-09T03:39:53.586Z,516.00
2024-03-09T03:40:53.672Z,517.00
2024-03-09T03:41:53.680Z,517.00
2024-03-09T03:42:53.775Z,517.00
2024-03-09T03:43:53.840Z,517.00
2024-03-09T03:44:53.799Z,518.00
2024-03-09T03:45:53.832Z,517.00
2024-03-09T03:46:53.891Z,514.00
2024-03-09T03:47:54.098Z,514.00
2024-03-09T03:48:54.033Z,514.00
2024-03-09T03:49:54.101Z,514.00
2024-03-09T03:50:54.099Z,516.00
2024-03-09T03:51:54.099Z,514.00
2024-03-09T03:52:54.189Z,517.00
2024-03-09T03:53:54.217Z,516.00
2024-03-09T03:54:54.293Z,516.00
2024-03-09T03:55:54.366Z,515.00
2024-03-09T03:56:54.405Z,516.00
2024-03-09T03:57:54.407Z,515.00
2024-03-09T03:58:54.494Z,514.00
2024-03-09T03:59:54.527Z,514.00
2024-03-09T04:00:54.575Z,515.00
2024-03-09T04:01:54.677Z,513.00
2024-03-09T04:02:54.634Z,514.00
2024-03-09T04:03:54.693Z,512.00
2024-03-09T04:04:54.898Z,513.00
2024-03-09T04:05:54.767Z,509.00
2024-03-09T04:06:54.827Z,510.00
2024-03-09T04:07:54.944Z,509.00
2024-03-09T04:08:54.966Z,512.00
2024-03-09T04:09:55.004Z,514.00
2024-03-09T04:10:55.530Z,512.00
2024-03-09T04:11:55.156Z,511.00
2024-03-09T04:12:55.169Z,510.00
2024-03-09T04:13:55.258Z,507.00
2024-03-09T04:14:55.235Z,508.00
2024-03-09T04:15:55.307Z,509.00
2024-03-09T04:16:55.392Z,511.00
2024-03-09T04:17:55.454Z,510.00
2024-03-09T04:18:55.476Z,511.00
2024-03-09T04:19:55.570Z,514.00
2024-03-09T04:20:55.929Z,516.00
2024-03-09T04:21:55.645Z,518.00
2024-03-09T04:22:55.688Z,518.00
2024-03-09T04:23:55.720Z,517.00
2024-03-09T04:24:55.829Z,516.00
2024-03-09T04:25:55.839Z,515.00
2024-03-09T04:26:55.865Z,515.00
2024-03-09T04:27:55.949Z,518.00
2024-03-09T04:29:03.655Z,522.00
2024-03-09T04:30:03.182Z,524.00
2024-03-09T04:31:10.397Z,519.00
2024-03-09T04:32:10.446Z,517.00
2024-03-09T04:33:10.572Z,514.00
2024-03-09T04:34:10.660Z,511.00
2024-03-09T04:35:11.075Z,512.00
2024-03-09T04:36:11.041Z,513.00
2024-03-09T04:37:11.313Z,513.00
2024-03-09T04:38:11.517Z,512.00
2024-03-09T04:39:11.811Z,510.00
2024-03-09T04:40:11.901Z,509.00
2024-03-09T04:41:12.182Z,510.00
2024-03-09T04:42:12.258Z,509.00
2024-03-09T04:43:12.434Z,512.00
2024-03-09T04:44:21.865Z,515.00
2024-03-09T04:45:13.602Z,515.00
2024-03-09T04:46:12.586Z,514.00
2024-03-09T04:47:12.633Z,513.00
2024-03-09T04:48:12.636Z,510.00
2024-03-09T04:49:12.633Z,511.00
2024-03-09T04:50:12.648Z,510.00
2024-03-09T04:51:12.643Z,510.00
2024-03-09T04:52:12.609Z,509.00
2024-03-09T04:53:12.675Z,508.00
2024-03-09T04:54:12.659Z,504.00
2024-03-09T04:55:12.723Z,506.00
2024-03-09T04:56:12.907Z,507.00
2024-03-09T04:57:12.849Z,506.00
2024-03-09T04:58:12.896Z,505.00
2024-03-09T04:59:12.991Z,504.00
2024-03-09T05:00:13.071Z,505.00
2024-03-09T05:01:13.055Z,505.00
2024-03-09T05:02:13.123Z,504.00
2024-03-09T05:03:13.244Z,503.00
2024-03-09T05:04:13.229Z,503.00
2024-03-09T05:05:13.361Z,502.00
2024-03-09T05:06:13.400Z,502.00
2024-03-09T05:07:13.463Z,502.00
2024-03-09T05:08:13.695Z,502.00
2024-03-09T05:09:13.578Z,502.00
2024-03-09T05:10:13.598Z,504.00
2024-03-09T05:11:13.703Z,503.00
2024-03-09T05:12:13.748Z,504.00
2024-03-09T05:13:13.790Z,502.00
2024-03-09T05:14:13.848Z,502.00
2024-03-09T05:15:13.903Z,500.00
2024-03-09T05:16:13.989Z,498.00
2024-03-09T05:17:14.048Z,500.00
2024-03-09T05:18:14.135Z,498.00
2024-03-09T05:19:14.104Z,499.00
2024-03-09T05:20:14.208Z,499.00
2024-03-09T05:21:14.216Z,499.00
2024-03-09T05:22:14.282Z,500.00
2024-03-09T05:23:16.661Z,500.00
2024-03-09T05:24:14.348Z,501.00
2024-03-09T05:25:14.391Z,502.00
2024-03-09T05:26:14.388Z,501.00
2024-03-09T05:27:14.370Z,502.00
2024-03-09T05:28:15.380Z,504.00
2024-03-09T05:29:14.383Z,505.00
2024-03-09T05:30:14.352Z,505.00
2024-03-09T05:31:14.399Z,502.00
2024-03-09T05:32:14.472Z,502.00
2024-03-09T05:33:14.413Z,507.00
2024-03-09T05:34:14.352Z,508.00
2024-03-09T05:35:14.415Z,508.00
2024-03-09T05:36:14.363Z,508.00
2024-03-09T05:37:14.373Z,506.00
2024-03-09T05:38:14.447Z,506.00
2024-03-09T05:39:14.395Z,504.00
2024-03-09T05:40:14.395Z,503.00
2024-03-09T05:41:14.433Z,504.00
2024-03-09T05:42:14.371Z,505.00
2024-03-09T05:43:14.406Z,507.00
2024-03-09T05:44:14.524Z,506.00
2024-03-09T05:45:14.518Z,507.00
2024-03-09T05:46:14.602Z,508.00
2024-03-09T05:47:14.680Z,507.00
2024-03-09T05:48:14.714Z,507.00
2024-03-09T05:49:14.724Z,508.00
2024-03-09T05:50:14.845Z,509.00
2024-03-09T05:51:14.827Z,507.00
2024-03-09T05:52:14.904Z,504.00
2024-03-09T05:53:14.944Z,503.00
2024-03-09T05:54:14.959Z,505.00
2024-03-09T05:55:15.070Z,505.00
2024-03-09T05:56:15.106Z,505.00
2024-03-09T05:57:15.095Z,504.00
2024-03-09T05:58:15.126Z,505.00
2024-03-09T05:59:15.226Z,506.00
2024-03-09T06:00:15.259Z,505.00
2024-03-09T06:01:15.289Z,505.00
2024-03-09T06:02:15.375Z,505.00
2024-03-09T06:03:15.394Z,505.00
2024-03-09T06:04:15.442Z,508.00
2024-03-09T06:05:15.535Z,506.00
2024-03-09T06:06:15.509Z,504.00
2024-03-09T06:07:15.532Z,507.00
2024-03-09T06:08:15.696Z,505.00
2024-03-09T06:09:15.621Z,506.00
2024-03-09T06:10:15.620Z,506.00
2024-03-09T06:11:15.730Z,509.00
2024-03-09T06:12:15.880Z,510.00
2024-03-09T06:13:15.803Z,512.00
2024-03-09T06:14:15.913Z,513.00
2024-03-09T06:15:15.966Z,512.00
2024-03-09T06:16:15.932Z,511.00
2024-03-09T06:17:15.994Z,513.00
2024-03-09T06:18:15.996Z,516.00
2024-03-09T06:19:16.055Z,517.00
2024-03-09T06:20:16.072Z,519.00
2024-03-09T06:21:16.122Z,518.00
2024-03-09T06:22:16.173Z,518.00
2024-03-09T06:23:16.319Z,518.00
2024-03-09T06:24:16.252Z,518.00
2024-03-09T06:25:16.270Z,519.00
2024-03-09T06:26:16.384Z,519.00
2024-03-09T06:27:16.375Z,519.00
2024-03-09T06:28:16.428Z,518.00
2024-03-09T06:29:16.471Z,517.00
2024-03-09T06:30:16.433Z,517.00
2024-03-09T06:31:16.493Z,517.00
2024-03-09T06:32:16.554Z,516.00
2024-03-09T06:33:16.606Z,516.00
2024-03-09T06:34:16.616Z,516.00
2024-03-09T06:35:16.719Z,516.00
2024-03-09T06:36:16.678Z,515.00
2024-03-09T06:37:16.776Z,514.00
2024-03-09T06:38:16.872Z,513.00
2024-03-09T06:39:16.852Z,514.00
2024-03-09T06:40:16.836Z,515.00
2024-03-09T06:41:16.998Z,515.00
2024-03-09T06:42:16.931Z,516.00
2024-03-09T06:43:16.963Z,518.00
2024-03-09T06:44:17.023Z,517.00
2024-03-09T06:45:16.965Z,517.00
2024-03-09T06:46:17.018Z,518.00
2024-03-09T06:47:17.102Z,517.00
2024-03-09T06:48:17.205Z,516.00
2024-03-09T06:49:17.132Z,518.00
2024-03-09T06:50:17.212Z,518.00
2024-03-09T06:51:17.199Z,518.00
2024-03-09T06:52:17.216Z,515.00
2024-03-09T06:53:17.410Z,513.00
2024-03-09T06:54:17.304Z,511.00
2024-03-09T06:55:17.334Z,510.00
2024-03-09T06:56:17.350Z,511.00
2024-03-09T06:57:17.364Z,514.00
2024-03-09T06:58:17.385Z,516.00
2024-03-09T06:59:17.470Z,516.00
2024-03-09T07:00:17.458Z,516.00
2024-03-09T07:01:17.535Z,517.00
2024-03-09T07:02:17.587Z,517.00
2024-03-09T07:03:17.531Z,516.00
2024-03-09T07:04:17.589Z,516.00
2024-03-09T07:05:17.739Z,516.00
2024-03-09T07:06:17.764Z,514.00
2024-03-09T07:07:17.768Z,514.00
2024-03-09T07:08:18.205Z,514.00
2024-03-09T07:09:17.760Z,515.00
2024-03-09T07:10:17.819Z,518.00
2024-03-09T07:11:17.843Z,518.00
2024-03-09T07:12:17.805Z,518.00
2024-03-09T07:13:17.838Z,519.00
2024-03-09T07:14:17.978Z,516.00
2024-03-09T07:15:18.290Z,514.00
2024-03-09T07:16:18.023Z,514.00
2024-03-09T07:17:18.168Z,512.00
2024-03-09T07:18:18.094Z,514.00
2024-03-09T07:19:18.098Z,512.00
2024-03-09T07:20:18.197Z,510.00
2024-03-09T07:21:18.241Z,509.00
2024-03-09T07:22:18.387Z,509.00
2024-03-09T07:23:18.652Z,508.00
2024-03-09T07:24:18.646Z,509.00
2024-03-09T07:25:18.749Z,510.00
2024-03-09T07:26:18.802Z,509.00
2024-03-09T07:27:18.953Z,512.00
2024-03-09T07:28:19.111Z,512.00
2024-03-09T07:29:19.353Z,511.00
2024-03-09T07:30:19.403Z,512.00
2024-03-09T07:31:19.560Z,511.00
2024-03-09T07:32:19.752Z,513.00
2024-03-09T07:33:19.943Z,513.00
2024-03-09T07:34:20.081Z,512.00
2024-03-09T07:35:20.756Z,513.00
2024-03-09T07:36:20.262Z,513.00
2024-03-09T07:37:23.958Z,514.00
2024-03-09T07:38:20.296Z,516.00
2024-03-09T07:39:20.296Z,517.00
2024-03-09T07:40:20.299Z,516.00
2024-03-09T07:41:20.333Z,515.00
2024-03-09T07:42:20.307Z,514.00
2024-03-09T07:43:20.306Z,517.00
2024-03-09T07:44:20.412Z,519.00
2024-03-09T07:45:20.332Z,520.00
2024-03-09T07:46:20.326Z,519.00
2024-03-09T07:47:20.338Z,517.00
2024-03-09T07:48:20.373Z,518.00
2024-03-09T07:49:20.457Z,518.00
2024-03-09T07:50:20.544Z,517.00
2024-03-09T07:51:20.545Z,515.00
2024-03-09T07:52:20.612Z,514.00
2024-03-09T07:53:20.670Z,515.00
2024-03-09T07:54:20.735Z,515.00
2024-03-09T07:55:20.856Z,514.00
2024-03-09T07:56:20.871Z,513.00
2024-03-09T07:57:20.856Z,512.00
2024-03-09T07:58:26.227Z,510.00
2024-03-09T07:59:21.949Z,509.00
2024-03-09T08:00:20.969Z,510.00
2024-03-09T08:01:20.920Z,511.00
2024-03-09T08:02:21.036Z,512.00
2024-03-09T08:03:20.979Z,512.00
2024-03-09T08:04:20.932Z,512.00
2024-03-09T08:05:21.011Z,513.00
2024-03-09T08:06:20.923Z,511.00
2024-03-09T08:07:20.921Z,512.00
2024-03-09T08:08:21.084Z,513.00
2024-03-09T08:09:20.928Z,513.00
2024-03-09T08:10:20.925Z,513.00
2024-03-09T08:11:20.970Z,512.00
2024-03-09T08:12:20.980Z,512.00
2024-03-09T08:13:21.333Z,512.00
2024-03-09T08:14:21.083Z,508.00
2024-03-09T08:15:21.069Z,510.00
2024-03-09T08:16:21.156Z,511.00
2024-03-09T08:17:21.172Z,510.00
2024-03-09T08:18:21.240Z,508.00
2024-03-09T08:19:21.201Z,509.00
2024-03-09T08:20:21.281Z,508.00
2024-03-09T08:21:21.296Z,506.00
2024-03-09T08:22:21.339Z,505.00
2024-03-09T08:23:21.497Z,506.00
2024-03-09T08:24:21.359Z,507.00
2024-03-09T08:25:21.431Z,508.00
2024-03-09T08:26:21.549Z,510.00
2024-03-09T08:27:21.432Z,509.00
2024-03-09T08:28:21.536Z,509.00
2024-03-09T08:29:21.531Z,511.00
2024-03-09T08:30:21.462Z,511.00
2024-03-09T08:31:21.497Z,512.00
2024-03-09T08:32:21.574Z,514.00
2024-03-09T08:33:21.583Z,518.00
2024-03-09T08:34:21.518Z,519.00
2024-03-09T08:35:21.642Z,521.00
2024-03-09T08:36:21.641Z,517.00
2024-03-09T08:37:21.607Z,517.00
2024-03-09T08:38:21.656Z,515.00
2024-03-09T08:39:21.624Z,515.00
2024-03-09T08:40:21.744Z,516.00
2024-03-09T08:41:21.688Z,516.00
2024-03-09T08:42:21.698Z,516.00
2024-03-09T08:43:21.742Z,514.00
2024-03-09T08:44:21.684Z,515.00
2024-03-09T08:45:21.885Z,517.00
2024-03-09T08:46:21.763Z,515.00
2024-03-09T08:47:21.823Z,515.00
2024-03-09T08:48:21.701Z,516.00
2024-03-09T08:49:21.725Z,516.00
2024-03-09T08:50:21.766Z,515.00
2024-03-09T08:51:21.736Z,515.00
2024-03-09T08:52:21.926Z,518.00
2024-03-09T08:53:22.187Z,517.00
2024-03-09T08:54:21.820Z,515.00
2024-03-09T08:55:21.879Z,515.00
2024-03-09T08:56:21.905Z,517.00
2024-03-09T08:57:21.958Z,517.00
2024-03-09T08:58:22.040Z,515.00
2024-03-09T08:59:22.079Z,517.00
2024-03-09T09:00:22.318Z,519.00
2024-03-09T09:01:22.293Z,518.00
2024-03-09T09:02:22.329Z,519.00
2024-03-09T09:03:22.289Z,515.00
2024-03-09T09:04:22.347Z,514.00
2024-03-09T09:05:22.530Z,514.00
2024-03-09T09:06:22.517Z,516.00
2024-03-09T09:07:22.557Z,518.00
2024-03-09T09:08:22.679Z,516.00
2024-03-09T09:09:22.695Z,514.00
2024-03-09T09:10:22.902Z,514.00
2024-03-09T09:11:22.875Z,514.00
2024-03-09T09:12:22.918Z,515.00
2024-03-09T09:13:23.012Z,516.00
2024-03-09T09:14:23.020Z,514.00
2024-03-09T09:15:23.082Z,513.00
2024-03-09T09:16:23.280Z,512.00
2024-03-09T09:17:23.263Z,511.00
2024-03-09T09:18:23.254Z,512.00
2024-03-09T09:19:23.315Z,511.00
2024-03-09T09:20:23.801Z,513.00
2024-03-09T09:21:23.457Z,513.00
2024-03-09T09:22:23.548Z,515.00
2024-03-09T09:23:23.763Z,514.00
2024-03-09T09:24:23.654Z,514.00
2024-03-09T09:25:25.647Z,512.00
2024-03-09T09:26:23.807Z,514.00
2024-03-09T09:27:23.738Z,513.00
2024-03-09T09:28:23.704Z,511.00
2024-03-09T09:29:23.706Z,511.00
2024-03-09T09:30:23.732Z,509.00
2024-03-09T09:31:23.720Z,509.00
2024-03-09T09:32:23.853Z,511.00
2024-03-09T09:33:23.728Z,512.00
2024-03-09T09:34:23.733Z,514.00
2024-03-09T09:35:24.217Z,515.00
2024-03-09T09:36:23.702Z,514.00
2024-03-09T09:37:23.748Z,514.00
2024-03-09T09:38:23.847Z,517.00
2024-03-09T09:39:23.789Z,520.00
2024-03-09T09:40:23.718Z,523.00
2024-03-09T09:41:23.716Z,524.00
2024-03-09T09:42:23.725Z,523.00
2024-03-09T09:43:23.736Z,522.00
2024-03-09T09:44:23.802Z,522.00
2024-03-09T09:45:24.110Z,521.00
2024-03-09T09:46:23.738Z,522.00
2024-03-09T09:47:23.751Z,523.00
2024-03-09T09:48:23.777Z,522.00
2024-03-09T09:49:23.743Z,522.00
2024-03-09T09:50:23.862Z,524.00
2024-03-09T09:51:23.784Z,524.00
2024-03-09T09:52:23.759Z,525.00
2024-03-09T09:53:23.825Z,523.00
2024-03-09T09:54:23.767Z,523.00
2024-03-09T09:55:23.775Z,522.00
2024-03-09T09:56:23.765Z,524.00
2024-03-09T09:57:23.778Z,521.00
2024-03-09T09:58:23.837Z,521.00
2024-03-09T09:59:23.936Z,522.00
2024-03-09T10:00:23.942Z,520.00
2024-03-09T10:01:24.054Z,522.00
2024-03-09T10:02:24.816Z,524.00
2024-03-09T10:03:24.138Z,523.00
2024-03-09T10:04:24.134Z,521.00
2024-03-09T10:05:24.249Z,523.00
2024-03-09T10:06:24.338Z,525.00
2024-03-09T10:07:24.292Z,524.00
2024-03-09T10:08:24.430Z,522.00
2024-03-09T10:09:24.403Z,522.00
2024-03-09T10:10:24.420Z,521.00
2024-03-09T10:11:24.595Z,520.00
2024-03-09T10:12:24.853Z,520.00
2024-03-09T10:13:24.618Z,520.00
2024-03-09T10:14:24.640Z,523.00
2024-03-09T10:15:24.762Z,520.00
2024-03-09T10:16:24.672Z,519.00
2024-03-09T10:17:24.948Z,516.00
2024-03-09T10:18:24.802Z,515.00
2024-03-09T10:19:24.795Z,515.00
2024-03-09T10:20:24.894Z,515.00
2024-03-09T10:21:24.926Z,512.00
2024-03-09T10:22:24.996Z,511.00
2024-03-09T10:23:25.032Z,512.00
2024-03-09T10:24:25.048Z,512.00
2024-03-09T10:25:25.040Z,513.00
2024-03-09T10:26:25.144Z,514.00
2024-03-09T10:27:25.160Z,515.00
2024-03-09T10:28:25.171Z,516.00
2024-03-09T10:29:25.274Z,515.00
2024-03-09T10:30:25.246Z,515.00
2024-03-09T10:31:25.287Z,516.00
2024-03-09T10:32:25.325Z,516.00
2024-03-09T10:33:25.454Z,514.00
2024-03-09T10:34:25.412Z,514.00
2024-03-09T10:35:25.664Z,517.00
2024-03-09T10:36:25.502Z,516.00
2024-03-09T10:37:25.505Z,515.00
2024-03-09T10:38:25.626Z,518.00
2024-03-09T10:39:25.647Z,517.00
2024-03-09T10:40:25.660Z,518.00
2024-03-09T10:41:25.697Z,518.00
2024-03-09T10:42:25.686Z,518.00
2024-03-09T10:43:25.752Z,517.00
2024-03-09T10:44:25.761Z,517.00
2024-03-09T10:45:26.674Z,516.00
2024-03-09T10:46:25.857Z,516.00
2024-03-09T10:47:25.886Z,517.00
2024-03-09T10:48:25.889Z,518.00
2024-03-09T10:49:25.932Z,518.00
2024-03-09T10:50:26.008Z,517.00
2024-03-09T10:51:26.023Z,517.00
2024-03-09T10:52:26.050Z,518.00
2024-03-09T10:53:26.068Z,518.00
2024-03-09T10:54:26.106Z,521.00
2024-03-09T10:55:26.150Z,521.00
2024-03-09T10:56:26.265Z,523.00
2024-03-09T10:57:26.232Z,523.00
2024-03-09T10:58:26.295Z,523.00
2024-03-09T10:59:26.383Z,524.00
2024-03-09T11:00:26.357Z,524.00
2024-03-09T11:01:26.381Z,523.00
2024-03-09T11:02:26.447Z,523.00
2024-03-09T11:03:26.388Z,522.00
2024-03-09T11:04:26.412Z,521.00
2024-03-09T11:05:26.453Z,521.00
2024-03-09T11:06:26.713Z,520.00
2024-03-09T11:07:26.530Z,521.00
2024-03-09T11:08:26.535Z,521.00
2024-03-09T11:09:26.555Z,522.00
2024-03-09T11:10:26.614Z,521.00
2024-03-09T11:11:26.662Z,520.00
2024-03-09T11:12:26.654Z,521.00
2024-03-09T11:13:26.632Z,520.00
2024-03-09T11:14:26.713Z,522.00
2024-03-09T11:15:26.727Z,523.00
2024-03-09T11:16:26.777Z,524.00
2024-03-09T11:17:26.913Z,524.00
2024-03-09T11:18:26.858Z,525.00
2024-03-09T11:19:26.852Z,527.00
2024-03-09T11:20:26.949Z,529.00
2024-03-09T11:21:26.936Z,528.00
2024-03-09T11:22:26.957Z,528.00
2024-03-09T11:23:27.014Z,529.00
2024-03-09T11:24:26.977Z,531.00
2024-03-09T11:25:27.026Z,532.00
2024-03-09T11:26:27.102Z,533.00
2024-03-09T11:27:27.070Z,534.00
2024-03-09T11:28:27.123Z,534.00
2024-03-09T11:29:27.165Z,532.00
2024-03-09T11:30:27.128Z,532.00
2024-03-09T11:31:27.190Z,532.00
2024-03-09T11:32:27.205Z,530.00
2024-03-09T11:33:27.151Z,531.00
2024-03-09T11:34:27.209Z,527.00
2024-03-09T11:35:27.286Z,526.00
2024-03-09T11:36:27.260Z,524.00
2024-03-09T11:37:27.270Z,524.00
2024-03-09T11:38:27.279Z,524.00
2024-03-09T11:39:27.298Z,523.00
2024-03-09T11:40:27.304Z,522.00
2024-03-09T11:41:27.372Z,520.00
2024-03-09T11:42:27.353Z,521.00
2024-03-09T11:43:27.469Z,520.00
2024-03-09T11:44:27.428Z,520.00
2024-03-09T11:45:27.441Z,524.00
2024-03-09T11:46:27.434Z,524.00
2024-03-09T11:47:27.547Z,524.00
2024-03-09T11:48:27.454Z,524.00
2024-03-09T11:49:27.455Z,524.00
2024-03-09T11:50:27.543Z,526.00
2024-03-09T11:51:27.472Z,529.00
2024-03-09T11:52:27.567Z,532.00
2024-03-09T11:53:27.565Z,531.00
2024-03-09T11:54:27.606Z,529.00
2024-03-09T11:55:27.544Z,528.00
2024-03-09T11:56:27.610Z,527.00
2024-03-09T11:57:27.594Z,524.00
2024-03-09T11:58:27.626Z,525.00
2024-03-09T11:59:27.782Z,527.00
2024-03-09T12:00:27.638Z,528.00
2024-03-09T12:01:27.664Z,525.00
2024-03-09T12:02:27.815Z,527.00
2024-03-09T12:03:27.696Z,527.00
2024-03-09T12:04:27.735Z,525.00
2024-03-09T12:05:27.733Z,525.00
2024-03-09T12:06:27.724Z,524.00
2024-03-09T12:07:27.731Z,522.00
2024-03-09T12:08:27.726Z,521.00
2024-03-09T12:09:27.789Z,520.00
2024-03-09T12:10:27.771Z,519.00
2024-03-09T12:11:27.891Z,519.00
2024-03-09T12:12:27.792Z,519.00
2024-03-09T12:13:27.860Z,519.00
2024-03-09T12:14:27.903Z,517.00
2024-03-09T12:15:29.684Z,517.00
2024-03-09T12:16:27.856Z,517.00
2024-03-09T12:17:27.954Z,515.00
2024-03-09T12:18:27.900Z,514.00
2024-03-09T12:19:27.918Z,516.00
2024-03-09T12:20:27.906Z,515.00
2024-03-09T12:21:27.944Z,514.00
2024-03-09T12:22:27.952Z,515.00
2024-03-09T12:23:27.946Z,515.00
2024-03-09T12:24:27.971Z,512.00
2024-03-09T12:25:27.978Z,513.00
2024-03-09T12:26:30.442Z,512.00
2024-03-09T12:27:28.003Z,513.00
2024-03-09T12:28:27.959Z,515.00
2024-03-09T12:29:27.969Z,515.00